Flight Track Log - Related Links

Times and Time Zones

All times are in EDT time to prevent confusion due to time zone crossing. See the LOF3400 flight status page for this flight to view local times or setup timezone preferences in your user account.

Time Position Orientation Groundspeed Altitude Reporting Facility
EDT Latitude Longitude Course Direction KTS MPH feet Rate Location/Type
Thu 03:27:56 PM 41.9500 -87.8667 253° West 191 220 2,400  Level Chicago TRACON
Thu 03:28:56 PM 41.9000 -87.9167 217° Southwest 246 283 4,600 1,400 Climbing Chicago TRACON
Thu 03:29:56 PM 41.8500 -88.0000 231° Southwest 283 326 5,200 923 Climbing Chicago TRACON
Thu 03:30:00 PM 41.9000 -88.2403 270° West  Level FlightAware Approximate
Thu 03:30:27 PM 41.8281 -88.0383 232° Southwest 277 319 6,000  Level Chicago Center
Thu 03:31:00 PM 41.8791 -88.3547 255° West  Level FlightAware Approximate
Thu 03:31:29 PM 41.7783 -88.1153 229° Southwest 277 319 7,400  Level Chicago Center
Thu 03:32:00 PM 41.8548 -88.4681 253° West  Level FlightAware Approximate
Thu 03:32:31 PM 41.7586 -88.2158 255° West 275 316 10,100  Level Chicago Center
Thu 03:33:00 PM 41.8288 -88.5808 253° West  Level FlightAware Approximate
Thu 03:33:33 PM 41.7656 -88.3214 275° West 285 328 11,800  Level Chicago Center
Thu 03:34:35 PM 41.7744 -88.4469 275° West 312 359 13,400 1,210 Climbing Chicago Center
Thu 03:35:37 PM 41.7814 -88.5708 274° West 333 383 14,300 1,056 Climbing Chicago Center
Thu 03:36:40 PM 41.7892 -88.6983 275° West 341 392 15,600 816 Climbing Chicago Center
Thu 03:37:42 PM 41.7772 -88.8297 263° West 352 405 16,000 194 Climbing Chicago Center
Thu 03:38:44 PM 41.6986 -88.9231 222° Southwest 370 426 16,000  Level Chicago Center
Thu 03:39:46 PM 41.6081 -88.9942 210° Southwest 379 436 16,000 -484 Level Chicago Center
Thu 03:40:48 PM 41.5183 -89.0606 209° Southwest 373 429 15,000 -1,210 Descending Chicago Center
Thu 03:41:50 PM 41.4261 -89.1306 210° Southwest 377 434 13,500 -1,500 Descending Chicago Center
Thu 03:42:52 PM 41.3356 -89.1975 209° Southwest 376 433 11,900 -1,452 Descending Chicago Center
Thu 03:43:54 PM 41.2486 -89.2658 211° Southwest 369 425 10,500 -919 Descending Chicago Center
Thu 03:44:56 PM 41.1497 -89.3464 212° Southwest 355 409 10,000 -677 Descending Chicago Center
Thu 03:45:58 PM 41.0967 -89.4169 225° Southwest 299 344 9,100 -1,161 Descending Chicago Center
Thu 03:47:00 PM 41.0486 -89.4872 228° Southwest 273 314 7,600 -1,452 Descending Chicago Center
Thu 03:48:02 PM 41.0008 -89.5553 227° Southwest 260 299 6,100 -1,452 Descending Chicago Center
Thu 03:49:04 PM 40.9528 -89.6289 229° Southwest 260 299 4,600 -1,016 Descending Chicago Center
Thu 03:50:06 PM 40.9103 -89.6992 231° Southwest 257 296 4,000 -290 Descending Chicago Center
Thu 03:51:08 PM 40.8664 -89.7756 233° Southwest 232 267 4,000 -97 Level Chicago Center
Thu 03:52:10 PM 40.8300 -89.8389 233° Southwest 224 258 3,800 -677 Descending Chicago Center
Thu 03:53:12 PM 40.7878 -89.8744 213° Southwest 211 243 2,600 -629 Descending Chicago Center
Thu 03:54:14 PM 40.7475 -89.8431 149° Southeast 194 223 2,500 -194 Descending Chicago Center
Thu 03:55:16 PM 40.7183 -89.7922 127° Southeast 179 206 2,200 -484 Descending Chicago Center
Thu 03:56:18 PM 40.6964 -89.7544 127° Southeast 149 171 1,500 -677 Descending Chicago Center
Thu 03:57:20 PM 40.6758 -89.7169 126° Southeast 134 154 800 -677 Descending Chicago Center

Login

Don't have an account? Register now (free) for customized features, flight alerts, and more!